createdAt,value
2022-07-30T00:01:41.990Z,83.21
2022-07-30T00:04:14.821Z,82.78
2022-07-30T00:06:45.107Z,82.17
2022-07-30T00:09:15.461Z,82.69
2022-07-30T00:11:45.778Z,83.19
2022-07-30T00:14:16.014Z,83.72
2022-07-30T00:16:46.275Z,82.87
2022-07-30T00:19:19.122Z,83.31
2022-07-30T00:21:50.901Z,82.97
2022-07-30T00:24:21.099Z,83.39
2022-07-30T00:26:51.552Z,83.17
2022-07-30T00:29:21.857Z,83.15
2022-07-30T00:31:52.056Z,81.77
2022-07-30T00:34:24.919Z,81.52
2022-07-30T00:36:55.256Z,81.32
2022-07-30T00:39:25.538Z,82.70
2022-07-30T00:42:03.914Z,83.54
2022-07-30T00:44:34.218Z,83.72
2022-07-30T00:47:04.877Z,84.15
2022-07-30T00:49:42.595Z,83.34
2022-07-30T00:52:14.560Z,83.87
2022-07-30T00:54:44.897Z,84.13
2022-07-30T00:57:15.128Z,84.92
2022-07-30T00:59:45.404Z,83.87
2022-07-30T01:02:15.625Z,84.03
2022-07-30T01:04:48.673Z,84.74
2022-07-30T01:07:19.208Z,84.67
2022-07-30T01:09:49.482Z,83.52
2022-07-30T01:12:26.402Z,83.58
2022-07-30T01:14:59.100Z,83.40
2022-07-30T01:17:29.628Z,83.80
2022-07-30T01:20:09.047Z,84.71
2022-07-30T01:22:53.253Z,85.33
2022-07-30T01:25:48.481Z,86.41
2022-07-30T01:28:26.774Z,87.73
2022-07-30T01:30:59.573Z,86.59
2022-07-30T01:33:31.399Z,85.98
2022-07-30T01:36:04.474Z,85.84
2022-07-30T01:38:35.883Z,86.05
2022-07-30T01:41:07.661Z,85.82
2022-07-30T01:43:43.074Z,85.96
2022-07-30T01:46:15.155Z,86.52
2022-07-30T01:48:48.797Z,86.26
2022-07-30T01:51:21.307Z,86.17
2022-07-30T01:53:56.479Z,86.58
2022-07-30T01:56:29.027Z,86.90
2022-07-30T01:59:10.060Z,87.83
2022-07-30T02:01:40.353Z,88.53
2022-07-30T02:04:10.622Z,89.35
2022-07-30T02:06:45.551Z,88.84
2022-07-30T02:09:26.210Z,87.88
2022-07-30T02:12:10.979Z,87.96
2022-07-30T02:14:53.286Z,86.73
2022-07-30T02:17:30.426Z,86.13
2022-07-30T02:20:13.643Z,85.58
2022-07-30T02:22:48.966Z,85.07
2022-07-30T02:25:24.183Z,84.21
2022-07-30T02:28:01.665Z,84.22
2022-07-30T02:30:39.689Z,85.13
2022-07-30T02:33:12.955Z,85.43
2022-07-30T02:35:44.324Z,87.22
2022-07-30T02:38:17.398Z,86.35
2022-07-30T02:40:49.014Z,86.71
2022-07-30T02:43:21.692Z,88.59
2022-07-30T02:45:55.648Z,88.52
2022-07-30T02:48:35.517Z,88.51
2022-07-30T02:51:08.311Z,89.05
2022-07-30T02:53:40.839Z,90.08
2022-07-30T02:56:12.906Z,90.71
2022-07-30T02:58:44.413Z,90.72
2022-07-30T03:01:21.205Z,92.26
2022-07-30T03:03:52.911Z,91.63
2022-07-30T03:06:26.490Z,91.92
2022-07-30T03:08:57.775Z,92.29
2022-07-30T03:11:30.028Z,92.99
2022-07-30T03:14:00.794Z,93.69
2022-07-30T03:16:34.758Z,94.98
2022-07-30T03:19:06.754Z,95.65
2022-07-30T03:21:40.370Z,95.68
2022-07-30T03:24:15.222Z,93.96
2022-07-30T03:26:46.875Z,93.72
2022-07-30T03:29:21.827Z,93.77
2022-07-30T03:31:55.985Z,93.56
2022-07-30T03:34:26.754Z,93.38
2022-07-30T03:36:59.809Z,92.37
2022-07-30T03:39:31.393Z,92.37
2022-07-30T03:42:01.948Z,92.61
2022-07-30T03:44:34.272Z,91.61
2022-07-30T03:47:11.737Z,91.79
2022-07-30T03:49:47.855Z,91.58
2022-07-30T03:52:18.684Z,91.97
2022-07-30T03:54:50.740Z,91.39
2022-07-30T03:57:50.412Z,90.86
2022-07-30T04:00:23.554Z,90.77
2022-07-30T04:02:59.284Z,90.65
2022-07-30T04:05:37.608Z,90.99
2022-07-30T04:08:11.659Z,90.93
2022-07-30T04:10:42.666Z,91.06
2022-07-30T04:13:47.222Z,90.28
2022-07-30T04:16:38.993Z,91.25
2022-07-30T04:19:21.740Z,90.67
2022-07-30T04:21:54.336Z,90.12
2022-07-30T04:24:26.866Z,90.19
2022-07-30T04:26:58.157Z,90.50
2022-07-30T04:29:28.725Z,90.75
2022-07-30T04:32:00.134Z,90.48
2022-07-30T04:35:05.588Z,89.82
2022-07-30T04:37:56.070Z,89.14
2022-07-30T04:40:26.472Z,89.44
2022-07-30T04:42:56.702Z,88.05
2022-07-30T04:45:27.878Z,87.67
2022-07-30T04:48:01.323Z,88.49
2022-07-30T04:50:37.939Z,89.28
2022-07-30T04:53:11.481Z,88.55
2022-07-30T04:55:48.394Z,87.94
2022-07-30T04:58:23.800Z,87.63
2022-07-30T05:00:56.003Z,88.79
2022-07-30T05:03:32.491Z,89.23
2022-07-30T05:06:06.304Z,87.51
2022-07-30T05:08:41.464Z,87.91
2022-07-30T05:11:16.028Z,88.03
2022-07-30T05:13:48.558Z,87.00
2022-07-30T05:16:22.847Z,86.94
2022-07-30T05:18:54.152Z,87.12
2022-07-30T05:21:28.649Z,87.46
2022-07-30T05:23:59.496Z,87.88
2022-07-30T05:26:38.245Z,87.79
2022-07-30T05:29:09.150Z,87.81
2022-07-30T05:31:52.813Z,87.69
2022-07-30T05:34:23.197Z,88.11
2022-07-30T05:36:58.322Z,89.41
2022-07-30T05:39:29.484Z,89.67
2022-07-30T05:42:18.659Z,89.82
2022-07-30T05:44:55.084Z,90.29
2022-07-30T05:47:25.285Z,89.69
2022-07-30T05:49:55.488Z,90.70
2022-07-30T05:52:28.949Z,90.54
2022-07-30T05:55:05.931Z,90.76
2022-07-30T05:57:56.342Z,90.68
2022-07-30T06:00:26.690Z,91.48
2022-07-30T06:02:58.336Z,91.23
2022-07-30T06:05:47.037Z,90.53
2022-07-30T06:08:19.845Z,90.97
2022-07-30T06:10:50.401Z,90.36
2022-07-30T06:13:20.619Z,90.14
2022-07-30T06:15:50.927Z,89.42
2022-07-30T06:18:23.180Z,88.41
2022-07-30T06:20:55.882Z,88.30
2022-07-30T06:23:28.415Z,88.84
2022-07-30T06:26:19.009Z,89.23
2022-07-30T06:28:49.215Z,89.52
2022-07-30T06:31:25.982Z,90.12
2022-07-30T06:33:56.482Z,89.36
2022-07-30T06:36:28.498Z,88.97
2022-07-30T06:39:06.924Z,89.98
2022-07-30T06:41:57.704Z,90.74
2022-07-30T06:44:32.671Z,91.16
2022-07-30T06:47:29.240Z,90.82
2022-07-30T06:50:01.152Z,91.04
2022-07-30T06:52:32.895Z,90.49
2022-07-30T06:55:07.381Z,90.58
2022-07-30T06:57:44.670Z,90.93
2022-07-30T07:00:34.846Z,90.63
2022-07-30T07:03:11.969Z,90.17
2022-07-30T07:05:42.587Z,90.85
2022-07-30T07:08:12.817Z,91.17
2022-07-30T07:10:51.122Z,90.61
2022-07-30T07:13:47.379Z,89.29
2022-07-30T07:16:26.848Z,89.48
2022-07-30T07:18:59.008Z,88.09
2022-07-30T07:21:29.304Z,88.82
2022-07-30T07:24:00.480Z,88.28
2022-07-30T07:26:51.642Z,87.94
2022-07-30T07:29:22.586Z,86.12
2022-07-30T07:32:07.210Z,85.51
2022-07-30T07:34:39.752Z,84.81
2022-07-30T07:37:11.174Z,83.45
2022-07-30T07:39:42.427Z,83.02
2022-07-30T07:42:15.576Z,82.86
2022-07-30T07:44:47.379Z,82.95
2022-07-30T07:47:17.921Z,83.41
2022-07-30T07:49:59.375Z,84.07
2022-07-30T07:52:29.644Z,83.84
2022-07-30T07:54:59.823Z,84.26
2022-07-30T07:57:41.580Z,84.30
2022-07-30T08:00:17.947Z,84.97
2022-07-30T08:02:52.056Z,84.16
2022-07-30T08:05:22.348Z,84.07
2022-07-30T08:08:06.516Z,84.42
2022-07-30T08:10:55.447Z,84.94
2022-07-30T08:13:52.560Z,85.46
2022-07-30T08:16:41.879Z,85.83
2022-07-30T08:19:36.920Z,86.27
2022-07-30T08:22:15.605Z,86.12
2022-07-30T08:24:45.651Z,86.87
2022-07-30T08:27:16.087Z,86.32
2022-07-30T08:29:49.204Z,86.81
2022-07-30T08:32:19.434Z,87.07
2022-07-30T08:34:49.950Z,87.07
2022-07-30T08:37:20.186Z,87.02
2022-07-30T08:39:50.454Z,86.02
2022-07-30T08:42:20.760Z,85.61
2022-07-30T08:44:56.643Z,86.96
2022-07-30T08:47:33.305Z,86.53
2022-07-30T08:50:16.988Z,86.80
2022-07-30T08:53:16.853Z,86.02
2022-07-30T08:55:48.368Z,85.35
2022-07-30T08:58:30.570Z,85.93
2022-07-30T09:01:03.657Z,85.49
2022-07-30T09:03:34.186Z,85.23
2022-07-30T09:06:08.283Z,85.66
2022-07-30T09:08:38.492Z,84.68
2022-07-30T09:11:08.968Z,83.28
2022-07-30T09:13:42.465Z,83.62
2022-07-30T09:16:24.694Z,83.85
2022-07-30T09:18:57.887Z,83.88
2022-07-30T09:21:31.623Z,83.87
2022-07-30T09:24:15.982Z,82.60
2022-07-30T09:27:07.781Z,82.87
2022-07-30T09:30:01.421Z,81.63
2022-07-30T09:32:55.996Z,80.66
2022-07-30T09:35:28.743Z,79.74
2022-07-30T09:38:14.896Z,79.17
2022-07-30T09:41:39.422Z,79.20
2022-07-30T09:44:27.850Z,78.02
2022-07-30T09:47:02.962Z,78.67
2022-07-30T09:49:43.159Z,78.11
2022-07-30T09:52:31.229Z,74.69
2022-07-30T09:55:03.574Z,75.37
2022-07-30T09:57:34.394Z,74.84
2022-07-30T10:00:24.237Z,74.71
2022-07-30T10:03:21.592Z,74.63
2022-07-30T10:06:38.072Z,75.50
2022-07-30T10:09:45.250Z,75.20
2022-07-30T10:12:18.751Z,75.31
2022-07-30T10:14:56.987Z,76.06
2022-07-30T10:17:27.522Z,74.75
2022-07-30T10:20:23.957Z,74.88
2022-07-30T10:23:18.413Z,75.86
2022-07-30T10:26:11.604Z,76.98
2022-07-30T10:29:00.703Z,78.34
2022-07-30T10:31:48.071Z,78.16
2022-07-30T10:34:23.769Z,78.44
2022-07-30T10:37:04.781Z,80.03
2022-07-30T10:39:47.132Z,81.08
2022-07-30T10:42:29.409Z,81.18
2022-07-30T10:45:23.049Z,80.77
2022-07-30T10:47:54.858Z,80.22
2022-07-30T10:50:29.264Z,80.91
2022-07-30T10:53:01.636Z,81.49
2022-07-30T10:55:39.343Z,82.81
2022-07-30T10:58:12.366Z,81.82
2022-07-30T11:01:02.604Z,82.23
2022-07-30T11:03:41.512Z,81.85
2022-07-30T11:06:30.924Z,83.07
2022-07-30T11:09:01.507Z,83.38
2022-07-30T11:12:05.010Z,83.22
2022-07-30T11:15:06.775Z,83.02
2022-07-30T11:18:12.868Z,83.26
2022-07-30T11:20:48.670Z,83.73
2022-07-30T11:23:42.999Z,83.05
2022-07-30T11:26:13.927Z,83.29
2022-07-30T11:28:49.795Z,82.49
2022-07-30T11:31:54.860Z,81.87
2022-07-30T11:34:31.638Z,80.91
2022-07-30T11:37:18.458Z,80.74
2022-07-30T11:40:15.159Z,80.63
2022-07-30T11:42:45.469Z,79.88
2022-07-30T11:45:32.410Z,79.11
2022-07-30T11:48:03.224Z,77.88
2022-07-30T11:50:36.449Z,78.31
2022-07-30T11:53:09.569Z,79.00
2022-07-30T11:55:42.625Z,77.77
2022-07-30T11:58:26.812Z,76.02
2022-07-30T12:01:02.130Z,74.12
2022-07-30T12:03:34.557Z,73.13
2022-07-30T12:06:10.635Z,71.17
2022-07-30T12:08:45.141Z,70.83
2022-07-30T12:11:15.703Z,71.44
2022-07-30T12:13:46.497Z,72.18
2022-07-30T12:16:22.426Z,71.94
2022-07-30T12:18:52.632Z,72.02
2022-07-30T12:21:23.068Z,71.74
2022-07-30T12:24:02.347Z,72.21
2022-07-30T12:26:34.922Z,72.45
2022-07-30T12:29:10.236Z,71.38
2022-07-30T12:31:45.317Z,70.96
2022-07-30T12:34:23.821Z,70.83
2022-07-30T12:36:54.412Z,69.33
2022-07-30T12:39:26.247Z,68.88
2022-07-30T12:41:58.573Z,69.75
2022-07-30T12:44:40.474Z,68.81
2022-07-30T12:47:24.140Z,69.11
2022-07-30T12:49:55.268Z,69.20
2022-07-30T12:52:31.605Z,69.33
2022-07-30T12:55:09.709Z,68.32
2022-07-30T12:58:07.055Z,68.87
2022-07-30T13:00:52.401Z,67.45
2022-07-30T13:03:27.667Z,68.45
2022-07-30T13:06:00.549Z,68.66
2022-07-30T13:08:58.857Z,68.15
2022-07-30T13:11:42.328Z,68.49
2022-07-30T13:14:23.648Z,69.08
2022-07-30T13:16:58.944Z,68.83
2022-07-30T13:19:31.807Z,68.51
2022-07-30T13:22:01.983Z,69.82
2022-07-30T13:24:34.185Z,68.30
2022-07-30T13:27:04.749Z,68.73
2022-07-30T13:29:35.204Z,68.48
2022-07-30T13:32:05.311Z,68.28
2022-07-30T13:34:38.262Z,68.21
2022-07-30T13:37:08.764Z,69.57
2022-07-30T13:39:39.037Z,70.62
2022-07-30T13:42:09.647Z,70.39
2022-07-30T13:44:39.866Z,71.01
2022-07-30T13:47:10.709Z,71.85
2022-07-30T13:49:49.408Z,72.47
2022-07-30T13:52:19.663Z,71.83
2022-07-30T13:54:51.450Z,71.74
2022-07-30T13:57:21.658Z,71.64
2022-07-30T13:59:52.704Z,72.25
2022-07-30T14:02:22.920Z,71.69
2022-07-30T14:04:55.693Z,70.97
2022-07-30T14:07:26.092Z,72.40
2022-07-30T14:09:56.265Z,72.04
2022-07-30T14:12:26.423Z,72.19
2022-07-30T14:14:56.821Z,72.02
2022-07-30T14:17:27.000Z,72.21
2022-07-30T14:19:59.842Z,71.15
2022-07-30T14:22:30.063Z,70.83
2022-07-30T14:25:00.341Z,70.03
2022-07-30T14:27:30.552Z,69.26
2022-07-30T14:30:00.892Z,69.95
2022-07-30T14:32:32.744Z,69.00
2022-07-30T14:35:05.639Z,68.80
2022-07-30T14:37:36.019Z,66.94
2022-07-30T14:40:06.911Z,66.42
2022-07-30T14:42:37.119Z,64.43
2022-07-30T14:45:08.287Z,62.09
2022-07-30T14:47:39.349Z,61.31
2022-07-30T14:50:12.710Z,62.65
2022-07-30T14:52:43.910Z,63.57
2022-07-30T14:55:14.096Z,64.22
2022-07-30T14:57:44.941Z,64.52
2022-07-30T15:00:16.404Z,65.41
2022-07-30T15:02:46.564Z,64.59
2022-07-30T15:05:19.466Z,64.88
2022-07-30T15:07:49.613Z,63.75
2022-07-30T15:10:19.880Z,63.42
2022-07-30T15:12:50.008Z,63.62
2022-07-30T15:15:20.197Z,62.63
2022-07-30T15:17:53.444Z,61.93
2022-07-30T15:20:26.222Z,62.32
2022-07-30T15:22:56.392Z,61.96
2022-07-30T15:25:26.871Z,62.32
2022-07-30T15:27:56.819Z,62.33
2022-07-30T15:30:27.074Z,62.40
2022-07-30T15:32:57.458Z,62.82
2022-07-30T15:35:30.004Z,62.30
2022-07-30T15:38:02.406Z,62.94
2022-07-30T15:40:32.578Z,63.28
2022-07-30T15:43:08.609Z,63.78
2022-07-30T15:45:52.442Z,63.63
2022-07-30T15:48:27.840Z,63.68
2022-07-30T15:51:05.086Z,63.30
2022-07-30T15:53:36.446Z,63.52
2022-07-30T15:56:07.102Z,63.15
2022-07-30T15:58:43.397Z,63.18
2022-07-30T16:01:14.120Z,63.76
2022-07-30T16:03:44.403Z,63.15
2022-07-30T16:06:17.302Z,63.27
2022-07-30T16:08:47.538Z,62.66
2022-07-30T16:11:17.729Z,62.57
2022-07-30T16:13:48.557Z,62.32
2022-07-30T16:16:19.165Z,62.54
2022-07-30T16:18:49.053Z,63.56
2022-07-30T16:21:21.952Z,63.11
2022-07-30T16:23:52.731Z,62.36
2022-07-30T16:26:23.114Z,63.16
2022-07-30T16:28:53.843Z,63.37
2022-07-30T16:31:24.180Z,63.50
2022-07-30T16:33:54.382Z,63.92
2022-07-30T16:36:27.144Z,63.87
2022-07-30T16:38:57.253Z,63.01
2022-07-30T16:41:27.625Z,63.93
2022-07-30T16:43:57.814Z,64.24
2022-07-30T16:46:28.062Z,63.38
2022-07-30T16:48:58.381Z,62.93
2022-07-30T16:51:31.265Z,63.43
2022-07-30T16:54:01.458Z,63.34
2022-07-30T16:56:31.716Z,63.37
2022-07-30T16:59:02.045Z,63.82
2022-07-30T17:01:32.345Z,64.65
2022-07-30T17:04:02.641Z,65.54
2022-07-30T17:06:35.689Z,66.39
2022-07-30T17:09:06.020Z,67.93
2022-07-30T17:11:47.808Z,68.11
2022-07-30T17:14:22.695Z,67.75
2022-07-30T17:16:53.547Z,68.37
2022-07-30T17:19:23.761Z,68.22
2022-07-30T17:21:56.572Z,68.36
2022-07-30T17:24:26.807Z,68.58
2022-07-30T17:26:57.002Z,68.17
2022-07-30T17:29:27.116Z,68.75
2022-07-30T17:31:57.290Z,68.71
2022-07-30T17:34:27.504Z,69.01
2022-07-30T17:37:00.312Z,69.05
2022-07-30T17:40:19.862Z,68.69
2022-07-30T17:42:21.340Z,68.25
2022-07-30T17:44:51.550Z,68.24
2022-07-30T17:47:21.816Z,67.98
2022-07-30T17:49:52.014Z,68.32
2022-07-30T17:52:26.502Z,68.38
2022-07-30T17:54:56.963Z,68.39
2022-07-30T17:57:27.512Z,69.11
2022-07-30T17:59:57.948Z,68.40
2022-07-30T18:02:29.027Z,68.30
2022-07-30T18:04:59.562Z,68.18
2022-07-30T18:07:32.848Z,68.95
2022-07-30T18:10:03.400Z,68.82
2022-07-30T18:12:34.399Z,69.00
2022-07-30T18:15:06.499Z,69.35
2022-07-30T18:17:36.752Z,69.27
2022-07-30T18:20:08.874Z,69.26
2022-07-30T18:22:41.968Z,70.42
2022-07-30T18:25:18.607Z,70.81
2022-07-30T18:27:51.418Z,70.93
2022-07-30T18:30:22.461Z,71.23
2022-07-30T18:32:53.308Z,72.70
2022-07-30T18:35:23.542Z,74.00
2022-07-30T18:37:56.370Z,74.32
2022-07-30T18:40:27.046Z,74.71
2022-07-30T18:42:56.986Z,75.01
2022-07-30T18:45:28.662Z,74.85
2022-07-30T18:47:59.927Z,75.29
2022-07-30T18:50:30.809Z,75.38
2022-07-30T18:53:15.311Z,75.66
2022-07-30T18:55:46.437Z,75.89
2022-07-30T18:58:17.059Z,75.90
2022-07-30T19:00:47.410Z,77.08
2022-07-30T19:03:22.878Z,77.41
2022-07-30T19:05:53.404Z,77.93
2022-07-30T19:08:26.218Z,78.05
2022-07-30T19:10:56.488Z,78.24
2022-07-30T19:13:26.717Z,78.22
2022-07-30T19:15:56.918Z,77.53
2022-07-30T19:18:27.183Z,78.13
2022-07-30T19:20:57.324Z,79.01
2022-07-30T19:23:30.135Z,79.40
2022-07-30T19:26:00.643Z,79.47
2022-07-30T19:28:30.827Z,79.70
2022-07-30T19:31:00.945Z,79.24
2022-07-30T19:33:31.146Z,79.56
2022-07-30T19:36:02.969Z,79.93
2022-07-30T19:38:37.380Z,79.71
2022-07-30T19:41:07.615Z,79.62
2022-07-30T19:43:37.996Z,79.79
2022-07-30T19:46:09.498Z,79.91
2022-07-30T19:48:41.355Z,79.88
2022-07-30T19:51:20.214Z,80.18
2022-07-30T19:53:54.012Z,80.80
2022-07-30T19:56:24.140Z,81.13
2022-07-30T19:58:54.357Z,82.28
2022-07-30T20:01:24.595Z,82.27
2022-07-30T20:04:11.873Z,83.09
2022-07-30T20:06:46.115Z,83.26
2022-07-30T20:09:19.242Z,82.94
2022-07-30T20:11:49.440Z,82.63
2022-07-30T20:14:22.967Z,82.77
2022-07-30T20:16:53.194Z,82.72
2022-07-30T20:19:23.468Z,82.64
2022-07-30T20:21:57.619Z,83.10
2022-07-30T20:24:40.345Z,82.61
2022-07-30T20:27:36.220Z,82.76
2022-07-30T20:30:01.347Z,82.84
2022-07-30T20:32:31.766Z,82.79
2022-07-30T20:35:02.117Z,83.05
2022-07-30T20:37:32.763Z,83.79
2022-07-30T20:40:16.798Z,83.74
2022-07-30T20:42:47.558Z,83.88
2022-07-30T20:45:18.146Z,83.34
2022-07-30T20:47:56.842Z,83.06
2022-07-30T20:50:28.352Z,83.19
2022-07-30T20:53:01.803Z,83.74
2022-07-30T20:55:34.380Z,83.97
2022-07-30T20:58:16.308Z,83.78
2022-07-30T21:00:49.783Z,83.88
2022-07-30T21:03:21.893Z,84.11
2022-07-30T21:05:52.820Z,84.32
2022-07-30T21:08:25.559Z,84.46
2022-07-30T21:11:00.272Z,84.38
2022-07-30T21:13:30.674Z,85.12
2022-07-30T21:16:03.515Z,85.12
2022-07-30T21:18:34.485Z,84.47
2022-07-30T21:21:05.702Z,85.14
2022-07-30T21:23:36.544Z,86.15
2022-07-30T21:26:13.329Z,87.19
2022-07-30T21:28:43.961Z,87.60
2022-07-30T21:31:14.796Z,88.40
2022-07-30T21:33:45.045Z,88.11
2022-07-30T21:36:16.288Z,88.05
2022-07-30T21:38:46.530Z,87.75
2022-07-30T21:41:20.156Z,87.33
2022-07-30T21:44:10.328Z,87.02
2022-07-30T21:46:40.810Z,87.69
2022-07-30T21:49:12.081Z,87.95
2022-07-30T21:51:42.264Z,87.76
2022-07-30T21:54:17.027Z,87.66
2022-07-30T21:56:59.425Z,87.82
2022-07-30T21:59:29.733Z,87.20
2022-07-30T22:02:00.739Z,87.79
2022-07-30T22:04:31.045Z,87.45
2022-07-30T22:07:02.388Z,87.37
2022-07-30T22:09:34.066Z,87.55
2022-07-30T22:12:12.451Z,87.80
2022-07-30T22:14:43.602Z,87.66
2022-07-30T22:17:23.575Z,87.69
2022-07-30T22:20:08.596Z,87.21
2022-07-30T22:22:41.657Z,87.35
2022-07-30T22:25:13.570Z,87.56
2022-07-30T22:27:56.161Z,87.70
2022-07-30T22:30:29.768Z,87.57
2022-07-30T22:33:15.763Z,86.78
2022-07-30T22:35:49.662Z,86.74
2022-07-30T22:38:21.082Z,86.63
2022-07-30T22:40:52.483Z,85.86
2022-07-30T22:43:33.311Z,84.88
2022-07-30T22:49:01.248Z,84.13
2022-07-30T22:52:02.825Z,84.13
2022-07-30T22:54:22.050Z,83.93
2022-07-30T22:56:53.232Z,83.39
2022-07-30T22:59:29.107Z,83.73
2022-07-30T23:02:17.939Z,84.13
2022-07-30T23:04:48.237Z,84.23
2022-07-30T23:07:19.413Z,84.09
2022-07-30T23:09:51.886Z,83.70
2022-07-30T23:12:22.441Z,83.50
2022-07-30T23:12:34.447Z,84.44
2022-07-30T23:14:56.068Z,83.09
2022-07-30T23:17:26.281Z,82.99
2022-07-30T23:19:56.486Z,82.07
2022-07-30T23:22:26.664Z,82.78
2022-07-30T23:24:56.808Z,82.71
2022-07-30T23:27:27.003Z,82.06
2022-07-30T23:29:59.914Z,81.56
2022-07-30T23:32:30.230Z,81.90
2022-07-30T23:35:00.815Z,81.70
2022-07-30T23:37:37.938Z,81.90
2022-07-30T23:40:20.058Z,81.79
2022-07-30T23:42:51.089Z,82.12
2022-07-30T23:45:24.125Z,82.24
2022-07-30T23:48:01.688Z,82.63
2022-07-30T23:50:33.837Z,83.16
2022-07-30T23:53:03.835Z,83.62
2022-07-30T23:55:36.109Z,83.89
2022-07-30T23:58:06.772Z,83.94
